Pevely, Missouri
Current Conditions -  °F | °C
As of 10:29 PM on Wednesday 26 Nov 2014 (Local Time) from KCPS Reporting Station
Haze Haze  
Wind Chill: 30°   Ceiling: 300
Heat Index: 34°   Visibility: 2mi
Dew Point: 32°   Wind: 5mph
Humidity: 92%   Direction: 10°N
Pressure: 30.15"   Gusts: NA
Location:  38.28°N, 90.4°W
Report Text: KCPS 270429Z AUTO 01004KT 2SM BR OVC003 01/00 A3015 RMK AO2 T00110000 TSNO
Loading
Personal Weather Stations






























Interactive Weather Map New forecast layout! Learn more

10-Day Weather Forecast

Advertisements
Track Severe Weather on mobile